createdAt,value
2017-06-21T00:00:10.780Z,62.81
2017-06-21T00:00:51.358Z,62.23
2017-06-21T00:01:32.076Z,62.52
2017-06-21T00:02:12.488Z,62.71
2017-06-21T00:02:53.481Z,62.52
2017-06-21T00:03:34.018Z,62.52
2017-06-21T00:04:14.504Z,62.13
2017-06-21T00:04:55.376Z,62.42
2017-06-21T00:05:36.397Z,62.52
2017-06-21T00:06:16.873Z,62.32
2017-06-21T00:06:57.514Z,62.13
2017-06-21T00:07:38.778Z,62.42
2017-06-21T00:08:19.539Z,62.62
2017-06-21T00:09:00.156Z,62.52
2017-06-21T00:09:40.825Z,62.42
2017-06-21T00:10:21.625Z,62.52
2017-06-21T00:11:02.611Z,62.91
2017-06-21T00:11:43.308Z,63.2
2017-06-21T00:12:23.593Z,63.17
2017-06-21T00:13:04.107Z,63.2
2017-06-21T00:13:44.623Z,63.26
2017-06-21T00:14:25.121Z,63.17
2017-06-21T00:15:05.617Z,63.39
2017-06-21T00:15:46.159Z,62.91
2017-06-21T00:16:26.742Z,63.2
2017-06-21T00:17:07.169Z,63.59
2017-06-21T00:17:47.729Z,63.59
2017-06-21T00:18:28.332Z,63.1
2017-06-21T00:19:08.837Z,63.29
2017-06-21T00:19:49.347Z,63.36
2017-06-21T00:20:30.187Z,63.46
2017-06-21T00:21:10.673Z,63.26
2017-06-21T00:21:51.409Z,63.65
2017-06-21T00:22:32.022Z,63.65
2017-06-21T00:23:12.924Z,64.04
2017-06-21T00:23:53.714Z,63.75
2017-06-21T00:24:34.344Z,63.85
2017-06-21T00:25:14.802Z,64.43
2017-06-21T00:25:55.340Z,64.33
2017-06-21T00:26:35.779Z,63.95
2017-06-21T00:27:16.625Z,63.95
2017-06-21T00:27:57.106Z,64.33
2017-06-21T00:28:37.649Z,64.82
2017-06-21T00:29:18.286Z,64.23
2017-06-21T00:29:58.802Z,64.33
2017-06-21T00:30:39.425Z,64.04
2017-06-21T00:31:20.092Z,64.04
2017-06-21T00:32:00.639Z,63.65
2017-06-21T00:32:41.069Z,63.75
2017-06-21T00:33:21.796Z,63.85
2017-06-21T00:34:02.258Z,63.65
2017-06-21T00:34:42.647Z,63.65
2017-06-21T00:35:23.135Z,63.75
2017-06-21T00:36:03.627Z,63.85
2017-06-21T00:36:44.132Z,64.23
2017-06-21T00:37:24.621Z,64.82
2017-06-21T00:38:05.132Z,64.72
2017-06-21T00:38:45.786Z,64.43
2017-06-21T00:39:26.286Z,64.23
2017-06-21T00:40:06.768Z,64.43
2017-06-21T00:40:47.298Z,64.43
2017-06-21T00:41:27.833Z,64.62
2017-06-21T00:42:08.304Z,64.72
2017-06-21T00:42:48.797Z,64.43
2017-06-21T00:43:29.472Z,65.2
2017-06-21T00:44:09.919Z,64.43
2017-06-21T00:44:50.459Z,64.82
2017-06-21T00:45:30.945Z,64.62
2017-06-21T00:46:11.543Z,65.11
2017-06-21T00:46:51.985Z,64.72
2017-06-21T00:47:32.470Z,65.37
2017-06-21T00:48:13.068Z,64.72
2017-06-21T00:48:53.464Z,65.4
2017-06-21T00:49:34.048Z,64.98
2017-06-21T00:50:14.480Z,65.56
2017-06-21T00:50:54.976Z,65.17
2017-06-21T00:51:35.423Z,65.01
2017-06-21T00:52:15.948Z,65.2
2017-06-21T00:52:56.438Z,65.01
2017-06-21T00:53:36.953Z,64.98
2017-06-21T00:54:17.518Z,65.95
2017-06-21T00:54:58.154Z,65.69
2017-06-21T00:55:38.637Z,65.47
2017-06-21T00:56:19.132Z,65.85
2017-06-21T00:56:59.571Z,65.5
2017-06-21T00:57:40.075Z,65.85
2017-06-21T00:58:20.546Z,65.66
2017-06-21T00:59:01.275Z,66.05
2017-06-21T00:59:41.812Z,66.05
2017-06-21T01:00:22.644Z,66.05
2017-06-21T01:01:03.348Z,66.24
2017-06-21T01:01:43.817Z,66.05
2017-06-21T01:02:24.502Z,65.95
2017-06-21T01:03:06.398Z,66.14
2017-06-21T01:03:47.895Z,66.05
2017-06-21T01:04:28.406Z,66.24
2017-06-21T01:05:09.521Z,66.72
2017-06-21T01:05:50.298Z,66.72
2017-06-21T01:06:31.095Z,66.14
2017-06-21T01:07:12.409Z,66.82
2017-06-21T01:07:52.980Z,66.44
2017-06-21T01:08:33.911Z,66.82
2017-06-21T01:09:15.289Z,66.82
2017-06-21T01:09:56.131Z,66.82
2017-06-21T01:10:36.608Z,66.44
2017-06-21T01:11:17.195Z,67.27
2017-06-21T01:11:57.862Z,66.34
2017-06-21T01:12:39.186Z,66.92
2017-06-21T01:13:19.654Z,67.31
2017-06-21T01:14:00.348Z,67.21
2017-06-21T01:14:40.985Z,67.11
2017-06-21T01:15:21.513Z,67.21
2017-06-21T01:16:02.636Z,67.02
2017-06-21T01:16:43.231Z,66.44
2017-06-21T01:17:23.865Z,66.34
2017-06-21T01:18:04.879Z,67.31
2017-06-21T01:18:46.208Z,67.4
2017-06-21T01:19:26.874Z,67.37
2017-06-21T01:20:07.677Z,67.02
2017-06-21T01:20:48.096Z,67.27
2017-06-21T01:21:28.731Z,66.63
2017-06-21T01:22:09.257Z,66.24
2017-06-21T01:22:49.656Z,66.14
2017-06-21T01:23:30.292Z,66.34
2017-06-21T01:24:10.858Z,66.44
2017-06-21T01:24:51.299Z,65.37
2017-06-21T01:25:31.798Z,65.85
2017-06-21T01:26:12.327Z,64.78
2017-06-21T01:26:52.819Z,64.59
2017-06-21T01:27:33.464Z,64.4
2017-06-21T01:28:14.080Z,63.43
2017-06-21T01:28:54.531Z,64.11
2017-06-21T01:29:35.081Z,63.82
2017-06-21T01:30:15.576Z,63.72
2017-06-21T01:30:56.041Z,63.72
2017-06-21T01:31:36.551Z,63.53
2017-06-21T01:32:17.143Z,63.72
2017-06-21T01:32:57.634Z,63.91
2017-06-21T01:33:38.098Z,63.33
2017-06-21T01:34:18.565Z,63.53
2017-06-21T01:34:59.117Z,63.72
2017-06-21T01:35:39.600Z,63.91
2017-06-21T01:36:20.049Z,63.59
2017-06-21T01:38:42.419Z,63.88
2017-06-21T01:39:31.505Z,63.98
2017-06-21T01:40:21.283Z,63.98
2017-06-21T01:41:09.568Z,63.53
2017-06-21T01:41:58.297Z,63.49
2017-06-21T01:42:47.039Z,63.62
2017-06-21T01:43:35.881Z,63.72
2017-06-21T01:44:24.795Z,63.62
2017-06-21T01:45:14.793Z,63.33
2017-06-21T01:46:03.218Z,63.43
2017-06-21T01:46:51.978Z,63.13
2017-06-21T01:47:40.879Z,63.04
2017-06-21T01:51:00.474Z,63.59
2017-06-21T01:51:49.239Z,63.49
2017-06-21T01:52:38.421Z,63.4
2017-06-21T01:53:27.338Z,63.59
2017-06-21T01:54:15.841Z,63.59
2017-06-21T01:55:05.039Z,63.88
2017-06-21T01:55:54.316Z,63.59
2017-06-21T01:56:43.098Z,63.88
2017-06-21T01:57:31.845Z,63.69
2017-06-21T01:58:20.149Z,63.59
2017-06-21T01:59:09.367Z,64.27
2017-06-21T01:59:57.911Z,63.98
2017-06-21T02:00:46.426Z,63.78
2017-06-21T02:01:35.033Z,63.88
2017-06-21T02:02:23.911Z,63.78
2017-06-21T02:03:12.699Z,63.69
2017-06-21T02:04:01.142Z,63.59
2017-06-21T02:04:49.933Z,63.78
2017-06-21T02:05:38.559Z,64.27
2017-06-21T02:06:27.433Z,64.17
2017-06-21T02:07:16.286Z,64.17
2017-06-21T02:08:04.658Z,64.75
2017-06-21T02:08:54.124Z,65.14
2017-06-21T02:09:42.946Z,65.3
2017-06-21T02:10:32.147Z,65.14
2017-06-21T02:11:20.512Z,65.05
2017-06-21T02:12:09.262Z,64.95
2017-06-21T02:12:58.289Z,65.05
2017-06-21T02:13:47.366Z,65.3
2017-06-21T02:14:35.760Z,65.59
2017-06-21T02:15:24.438Z,65.53
2017-06-21T02:16:13.461Z,65.69
2017-06-21T02:17:01.881Z,65.5
2017-06-21T02:17:50.226Z,65.79
2017-06-21T02:18:38.785Z,65.4
2017-06-21T02:19:28.404Z,65.5
2017-06-21T02:20:16.382Z,65.4
2017-06-21T02:21:05.276Z,65.59
2017-06-21T02:21:53.901Z,65.89
2017-06-21T02:22:42.891Z,66.17
2017-06-21T02:23:31.971Z,65.79
2017-06-21T02:24:20.397Z,66.08
2017-06-21T02:25:09.015Z,66.08
2017-06-21T02:25:57.629Z,65.89
2017-06-21T02:26:45.022Z,66.17
2017-06-21T02:27:34.493Z,65.89
2017-06-21T02:28:22.882Z,66.17
2017-06-21T02:29:11.971Z,66.08
2017-06-21T02:30:00.812Z,66.37
2017-06-21T02:30:49.119Z,66.37
2017-06-21T02:31:38.447Z,65.89
2017-06-21T02:32:27.375Z,66.17
2017-06-21T02:33:15.905Z,67.3
2017-06-21T02:34:04.440Z,66.92
2017-06-21T02:34:52.963Z,67.11
2017-06-21T02:35:41.592Z,67.21
2017-06-21T02:36:30.386Z,66.37
2017-06-21T02:37:18.885Z,67.3
2017-06-21T02:38:08.085Z,67.3
2017-06-21T02:38:47.661Z,67.11
2017-06-21T02:39:28.107Z,67.11
2017-06-21T02:40:08.665Z,67.88
2017-06-21T02:40:49.534Z,68.08
2017-06-21T02:41:29.722Z,68.47
2017-06-21T02:42:10.647Z,68.47
2017-06-21T02:42:50.794Z,68.47
2017-06-21T02:43:31.601Z,68.33
2017-06-21T02:44:12.173Z,68.91
2017-06-21T02:44:52.594Z,69.21
2017-06-21T02:45:33.075Z,69.4
2017-06-21T02:46:13.574Z,68.73
2017-06-21T02:46:54.091Z,68.82
2017-06-21T02:47:34.655Z,68.82
2017-06-21T02:48:15.090Z,68.76
2017-06-21T02:48:55.673Z,68.27
2017-06-21T02:49:36.290Z,68.66
2017-06-21T02:50:16.862Z,68.47
2017-06-21T02:50:57.833Z,68.47
2017-06-21T02:51:38.308Z,68.27
2017-06-21T02:52:18.895Z,68.08
2017-06-21T02:52:59.491Z,68.08
2017-06-21T02:53:40.411Z,68.27
2017-06-21T02:54:20.936Z,68.18
2017-06-21T02:55:01.147Z,68.18
2017-06-21T02:55:41.660Z,68.18
2017-06-21T02:56:22.108Z,68.27
2017-06-21T02:57:02.604Z,68.08
2017-06-21T02:57:43.141Z,67.98
2017-06-21T02:58:23.650Z,68.47
2017-06-21T02:59:04.102Z,68.27
2017-06-21T02:59:44.629Z,68.47
2017-06-21T03:00:25.100Z,68.47
2017-06-21T03:01:05.634Z,68.08
2017-06-21T03:01:46.140Z,68.66
2017-06-21T03:02:26.593Z,68.18
2017-06-21T03:03:07.110Z,68.18
2017-06-21T03:03:47.628Z,67.98
2017-06-21T03:04:28.119Z,67.98
2017-06-21T03:05:08.648Z,67.6
2017-06-21T03:05:49.156Z,67.79
2017-06-21T03:06:29.631Z,67.98
2017-06-21T03:07:10.162Z,68.08
2017-06-21T03:07:50.659Z,68.18
2017-06-21T03:08:31.205Z,68.27
2017-06-21T03:09:11.857Z,68.47
2017-06-21T03:09:52.140Z,68.47
2017-06-21T03:10:32.691Z,68.27
2017-06-21T03:11:13.127Z,68.82
2017-06-21T03:11:53.621Z,68.82
2017-06-21T03:12:34.192Z,68.73
2017-06-21T03:13:14.649Z,68.91
2017-06-21T03:13:55.139Z,69.31
2017-06-21T03:14:35.661Z,70.18
2017-06-21T03:15:16.117Z,70.24
2017-06-21T03:15:56.667Z,70.04
2017-06-21T03:16:37.144Z,70.18
2017-06-21T03:17:17.594Z,70.62
2017-06-21T03:17:58.116Z,70.24
2017-06-21T03:18:38.571Z,70.92
2017-06-21T03:19:19.174Z,70.72
2017-06-21T03:19:59.675Z,70.72
2017-06-21T03:20:40.213Z,69.95
2017-06-21T03:21:20.705Z,69.98
2017-06-21T03:22:01.272Z,70.08
2017-06-21T03:22:41.747Z,70.18
2017-06-21T03:23:22.321Z,70.18
2017-06-21T03:24:02.802Z,69.95
2017-06-21T03:24:43.259Z,70.18
2017-06-21T03:25:23.737Z,70.24
2017-06-21T03:26:04.307Z,70.82
2017-06-21T03:26:44.809Z,70.82
2017-06-21T03:27:25.306Z,70.82
2017-06-21T03:28:05.875Z,70.82
2017-06-21T03:28:46.401Z,70.92
2017-06-21T03:29:26.815Z,71.2
2017-06-21T03:30:07.370Z,71.5
2017-06-21T03:30:47.834Z,71.4
2017-06-21T03:31:28.373Z,71.5
2017-06-21T03:32:08.981Z,71.4
2017-06-21T03:32:50.080Z,71.98
2017-06-21T03:33:30.599Z,71.59
2017-06-21T03:34:11.126Z,71.2
2017-06-21T03:34:51.684Z,71.4
2017-06-21T03:35:32.150Z,70.56
2017-06-21T03:36:12.706Z,71.3
2017-06-21T03:36:53.186Z,71.4
2017-06-21T03:37:33.685Z,71.5
2017-06-21T03:38:14.127Z,70.82
2017-06-21T03:38:55.036Z,71.01
2017-06-21T03:39:35.600Z,70.53
2017-06-21T03:40:16.051Z,71.24
2017-06-21T03:40:56.549Z,71.3
2017-06-21T03:41:37.033Z,71.4
2017-06-21T03:42:17.623Z,70.72
2017-06-21T03:42:58.159Z,70.82
2017-06-21T03:43:38.642Z,71.04
2017-06-21T03:44:19.169Z,70.08
2017-06-21T03:44:59.639Z,70.53
2017-06-21T03:45:40.145Z,70.82
2017-06-21T03:46:20.614Z,71.01
2017-06-21T03:47:01.190Z,70.62
2017-06-21T03:47:41.694Z,71.04
2017-06-21T03:48:22.175Z,70.18
2017-06-21T03:49:02.614Z,69.98
2017-06-21T03:49:43.151Z,69.89
2017-06-21T03:50:23.763Z,70.08
2017-06-21T03:51:04.244Z,69.01
2017-06-21T03:51:44.723Z,68.91
2017-06-21T03:52:25.253Z,68.73
2017-06-21T03:53:05.803Z,68.85
2017-06-21T03:53:46.286Z,68.91
2017-06-21T03:54:26.784Z,68.73
2017-06-21T03:55:07.270Z,69.59
2017-06-21T03:55:47.739Z,70.04
2017-06-21T03:56:28.213Z,69.79
2017-06-21T03:57:08.802Z,70.08
2017-06-21T03:57:49.241Z,70.04
2017-06-21T03:58:29.851Z,69.79
2017-06-21T03:59:10.345Z,69.31
2017-06-21T03:59:50.799Z,70.43
2017-06-21T04:00:31.270Z,70.53
2017-06-21T04:01:11.782Z,70.62
2017-06-21T04:01:52.371Z,70.62
2017-06-21T04:02:32.820Z,70.24
2017-06-21T04:03:13.346Z,69.85
2017-06-21T04:03:53.859Z,69.95
2017-06-21T04:04:34.311Z,70.53
2017-06-21T04:05:14.821Z,70.04
2017-06-21T04:05:55.354Z,69.75
2017-06-21T04:06:35.835Z,69.75
2017-06-21T04:07:16.385Z,69.11
2017-06-21T04:07:56.901Z,68.73
2017-06-21T04:08:37.661Z,68.63
2017-06-21T04:09:18.044Z,68.66
2017-06-21T04:09:58.545Z,67.98
2017-06-21T04:10:39.054Z,67.5
2017-06-21T04:11:19.587Z,67.3
2017-06-21T04:12:00.114Z,67.21
2017-06-21T04:12:40.594Z,66.92
2017-06-21T04:13:21.159Z,67.11
2017-06-21T04:14:01.703Z,67.3
2017-06-21T04:14:42.219Z,67.02
2017-06-21T04:15:22.916Z,66.92
2017-06-21T04:16:03.286Z,67.14
2017-06-21T04:16:43.749Z,67.3
2017-06-21T04:17:24.265Z,66.92
2017-06-21T04:18:04.847Z,67.69
2017-06-21T04:18:45.341Z,67.5
2017-06-21T04:19:25.796Z,66.92
2017-06-21T04:20:06.339Z,66.92
2017-06-21T04:20:47.057Z,67.3
2017-06-21T04:21:27.567Z,66.95
2017-06-21T04:22:08.095Z,66.75
2017-06-21T04:22:48.695Z,66.37
2017-06-21T04:23:30.042Z,65.89
2017-06-21T04:24:10.565Z,66.17
2017-06-21T04:24:51.080Z,66.27
2017-06-21T04:25:31.576Z,65.4
2017-06-21T04:26:12.111Z,65.2
2017-06-21T04:26:52.587Z,65.98
2017-06-21T04:27:33.055Z,65.4
2017-06-21T04:28:13.582Z,65.59
2017-06-21T04:28:54.097Z,65.3
2017-06-21T04:29:34.809Z,65.3
2017-06-21T04:30:15.696Z,65.3
2017-06-21T04:30:56.642Z,65.2
2017-06-21T04:31:36.736Z,65.2
2017-06-21T04:32:17.471Z,64.75
2017-06-21T04:33:00.249Z,64.75
2017-06-21T04:34:54.642Z,64.65
2017-06-21T04:35:43.861Z,64.85
2017-06-21T04:36:32.486Z,64.56
2017-06-21T04:37:20.568Z,64.75
2017-06-21T04:38:10.835Z,64.65
2017-06-21T04:38:59.207Z,64.65
2017-06-21T04:39:48.039Z,64.85
2017-06-21T04:40:36.659Z,64.07
2017-06-21T04:41:25.424Z,64.47
2017-06-21T04:42:19.196Z,64.01
2017-06-21T04:43:11.674Z,62.85
2017-06-21T04:47:07.511Z,53.02
2017-06-21T04:47:48.329Z,53.31
2017-06-21T04:48:29.036Z,54.01
2017-06-21T04:49:09.451Z,55.44
2017-06-21T04:49:49.984Z,56.2
2017-06-21T04:50:30.620Z,56.85
2017-06-21T04:51:14.563Z,57.92
2017-06-21T04:51:55.382Z,58.37
2017-06-21T04:52:35.988Z,58.76
2017-06-21T04:53:17.393Z,59.51
2017-06-21T04:53:57.788Z,60.09
2017-06-21T04:54:38.365Z,60.68
2017-06-21T04:55:18.840Z,60.58
2017-06-21T04:55:59.420Z,60.94
2017-06-21T04:56:39.919Z,61.04
2017-06-21T04:57:20.458Z,61.42
2017-06-21T04:58:03.648Z,61.32
2017-06-21T04:58:43.423Z,62.36
2017-06-21T04:59:23.968Z,62.75
2017-06-21T05:00:04.431Z,62.07
2017-06-21T05:00:45.007Z,62.55
2017-06-21T05:01:25.657Z,62.16
2017-06-21T05:02:16.046Z,63.13
2017-06-21T05:02:56.680Z,63.49
2017-06-21T05:03:44.443Z,63.04
2017-06-21T05:07:19.380Z,63.04
2017-06-21T05:08:08.106Z,62.36
2017-06-21T05:08:55.191Z,62.36
2017-06-21T05:09:35.919Z,62.55
2017-06-21T05:10:16.698Z,62.36
2017-06-21T05:10:57.387Z,62.16
2017-06-21T05:11:37.942Z,62.46
2017-06-21T05:12:18.538Z,62.46
2017-06-21T05:12:59.794Z,62.49
2017-06-21T05:13:40.239Z,61.61
2017-06-21T05:14:20.767Z,61.81
2017-06-21T05:15:02.017Z,61.71
2017-06-21T05:15:42.788Z,60.94
2017-06-21T05:16:23.389Z,60.77
2017-06-21T05:17:03.924Z,60.38
2017-06-21T05:17:44.382Z,60.28
2017-06-21T05:18:27.300Z,61.94
2017-06-21T05:19:07.543Z,61
2017-06-21T05:19:47.382Z,62.16
2017-06-21T05:20:27.964Z,64.17
2017-06-21T05:21:08.827Z,64.56
2017-06-21T05:21:48.978Z,68.54
2017-06-21T05:22:29.588Z,66.3
2017-06-21T05:23:10.037Z,63.71
2017-06-21T05:23:50.554Z,62.13
2017-06-21T05:24:30.996Z,62.52
2017-06-21T05:25:11.546Z,62.52
2017-06-21T05:25:52.149Z,63.32
2017-06-21T05:26:32.602Z,61.55
2017-06-21T05:27:13.199Z,63.42
2017-06-21T05:27:53.623Z,67.15
2017-06-21T05:28:34.128Z,63.87
2017-06-21T05:29:14.669Z,61.57
2017-06-21T05:29:55.126Z,62.26
2017-06-21T05:30:35.635Z,59.59
2017-06-21T05:31:16.335Z,63.2
2017-06-21T05:31:56.814Z,61.93
2017-06-21T05:32:37.322Z,63.49
2017-06-21T05:33:17.968Z,66.99
2017-06-21T05:33:58.574Z,68.6
2017-06-21T05:34:40.275Z,66.37
2017-06-21T05:35:20.478Z,62.77
2017-06-21T05:36:02.241Z,61.02
2017-06-21T05:36:42.957Z,59.95
2017-06-21T05:39:06.665Z,59.92
2017-06-21T05:39:46.976Z,60.12
2017-06-21T05:40:27.486Z,59.74
2017-06-21T05:41:07.989Z,60.22
2017-06-21T05:41:48.544Z,60.71
2017-06-21T05:42:29.034Z,61.68
2017-06-21T05:43:09.648Z,60.93
2017-06-21T05:43:50.107Z,60.05
2017-06-21T05:44:30.612Z,59.47
2017-06-21T05:45:11.133Z,59.95
2017-06-21T05:45:51.580Z,60.83
2017-06-21T05:46:32.353Z,60.15
2017-06-21T05:47:12.919Z,59.95
2017-06-21T05:47:53.459Z,62.38
2017-06-21T05:48:33.955Z,61.22
2017-06-21T05:49:14.531Z,59.74
2017-06-21T05:49:55.055Z,58.95
2017-06-21T05:50:35.596Z,59.64
2017-06-21T05:51:16.150Z,58.95
2017-06-21T05:51:56.604Z,61.71
2017-06-21T05:52:37.148Z,59.92
2017-06-21T05:53:17.727Z,59.86
2017-06-21T05:53:58.454Z,62.41
2017-06-21T05:54:39.082Z,59.59
2017-06-21T05:55:19.556Z,58.14
2017-06-21T05:56:00.062Z,57.78
2017-06-21T05:56:40.568Z,60.99
2017-06-21T05:57:21.043Z,62.48
2017-06-21T05:58:01.538Z,57.51
2017-06-21T05:58:42.106Z,55.66
2017-06-21T05:59:22.602Z,62.02
2017-06-21T06:00:03.128Z,66.6
2017-06-21T06:00:43.651Z,62.6
2017-06-21T06:01:24.169Z,58.74
2017-06-21T06:02:04.697Z,56.4
2017-06-21T06:02:45.281Z,55.27
2017-06-21T06:03:25.692Z,59.98
2017-06-21T06:04:06.214Z,57.57
2017-06-21T06:04:46.684Z,55.13
2017-06-21T06:05:27.236Z,62.66
2017-06-21T06:06:07.875Z,57.92
2017-06-21T06:06:48.219Z,58.7
2017-06-21T06:07:28.736Z,58.63
2017-06-21T06:08:09.182Z,55.61
2017-06-21T06:08:49.692Z,56.87
2017-06-21T06:09:30.487Z,58.4
2017-06-21T06:10:10.999Z,53.56
2017-06-21T06:10:51.622Z,57.36
2017-06-21T06:11:32.145Z,52.85
2017-06-21T06:12:12.876Z,53.14
2017-06-21T06:12:53.348Z,51.9
2017-06-21T06:13:33.994Z,62.63
2017-06-21T06:14:14.734Z,62.34
2017-06-21T06:14:55.616Z,55.93
2017-06-21T06:15:36.090Z,52.68
2017-06-21T06:16:16.550Z,53.95
2017-06-21T06:16:57.136Z,53.75
2017-06-21T06:17:37.607Z,52.83
2017-06-21T06:18:18.068Z,54.21
2017-06-21T06:18:58.560Z,55.8
2017-06-21T06:19:39.107Z,58.34
2017-06-21T06:20:19.675Z,53.56
2017-06-21T06:22:18.736Z,62.95
2017-06-21T06:22:59.129Z,61.1
2017-06-21T06:23:39.622Z,60.71
2017-06-21T06:24:20.134Z,54.07
2017-06-21T06:25:00.618Z,52.58
2017-06-21T06:25:42.042Z,52.7
2017-06-21T06:26:21.616Z,53.13
2017-06-21T06:27:02.159Z,52.02
2017-06-21T06:27:42.706Z,57.49
2017-06-21T06:28:23.312Z,53.91
2017-06-21T06:29:03.792Z,51.07
2017-06-21T06:29:44.296Z,54.69
2017-06-21T06:30:25.776Z,51.07
2017-06-21T06:31:06.276Z,49.73
2017-06-21T06:31:46.733Z,53.15
2017-06-21T06:32:27.320Z,51
2017-06-21T06:33:07.845Z,52.08
2017-06-21T06:33:48.362Z,50.71
2017-06-21T06:34:28.900Z,48.83
2017-06-21T06:35:09.485Z,51.46
2017-06-21T06:35:50.248Z,49.8
2017-06-21T06:36:31.610Z,49.85
2017-06-21T06:37:12.061Z,49.76
2017-06-21T06:37:52.531Z,50.07
2017-06-21T06:38:33.060Z,52.7
2017-06-21T06:39:13.573Z,51.9
2017-06-21T06:39:54.090Z,51.21
2017-06-21T06:40:34.658Z,52.53
2017-06-21T06:41:15.205Z,51.58
2017-06-21T06:41:56.280Z,51.61
2017-06-21T06:42:36.848Z,50.82
2017-06-21T06:43:17.670Z,51.14
2017-06-21T06:43:59.096Z,54.66
2017-06-21T06:44:38.924Z,51.8
2017-06-21T06:45:19.402Z,51.02
2017-06-21T06:45:59.877Z,50.73
2017-06-21T06:46:40.472Z,51.21
2017-06-21T06:47:21.053Z,53.85
2017-06-21T06:48:01.671Z,55.02
2017-06-21T06:48:42.088Z,54.17
2017-06-21T06:49:22.594Z,53.68
2017-06-21T06:50:03.173Z,52.51
2017-06-21T06:50:43.713Z,53.68
2017-06-21T06:51:24.219Z,57.29
2017-06-21T06:52:04.635Z,54.07
2017-06-21T06:52:45.098Z,51.9
2017-06-21T06:53:26.252Z,52.87
2017-06-21T06:54:06.794Z,51.41
2017-06-21T06:54:47.354Z,53.75
2017-06-21T06:55:27.808Z,52.68
2017-06-21T06:56:08.406Z,51.51
2017-06-21T06:56:48.909Z,55.24
2017-06-21T06:57:29.413Z,52.29
2017-06-21T06:58:09.996Z,55.02
2017-06-21T06:58:50.496Z,52.8
2017-06-21T06:59:31.311Z,51.82
2017-06-21T07:00:11.893Z,54.59
2017-06-21T07:00:52.565Z,56.54
2017-06-21T07:01:33.144Z,55.37
2017-06-21T07:02:13.575Z,62.66
2017-06-21T07:02:54.158Z,57.49
2017-06-21T07:05:12.011Z,52.8
2017-06-21T07:06:00.824Z,64.12
2017-06-21T07:06:47.829Z,61.59
2017-06-21T07:07:35.995Z,57.59
2017-06-21T07:08:25.066Z,60.49
2017-06-21T07:09:13.795Z,57.85
2017-06-21T07:10:01.551Z,56.71
2017-06-21T07:10:41.767Z,59.83
2017-06-21T07:11:22.338Z,54.17
2017-06-21T07:12:02.920Z,54.17
2017-06-21T07:12:43.414Z,59.93
2017-06-21T07:13:24.018Z,64.12
2017-06-21T07:14:04.518Z,62.5
2017-06-21T07:14:45.118Z,58.66
2017-06-21T07:15:25.683Z,57.42
2017-06-21T07:16:06.736Z,59.3
2017-06-21T07:16:47.139Z,58.72
2017-06-21T07:17:27.741Z,65.26
2017-06-21T07:18:08.243Z,65.36
2017-06-21T07:18:48.923Z,58.81
2017-06-21T07:19:30.113Z,56.01
2017-06-21T07:20:10.634Z,55.52
2017-06-21T07:20:51.172Z,54.32
2017-06-21T07:21:31.602Z,50.51
2017-06-21T07:22:12.226Z,49.24
2017-06-21T07:22:52.867Z,48.94
2017-06-21T07:23:33.213Z,53.34
2017-06-21T07:24:13.813Z,49.33
2017-06-21T07:24:54.432Z,49.14
2017-06-21T07:25:34.887Z,48.55
2017-06-21T07:26:15.417Z,50.93
2017-06-21T07:26:57.489Z,49.65
2017-06-21T07:27:36.773Z,54.64
2017-06-21T07:28:18.073Z,56.79
2017-06-21T07:28:58.680Z,56.79
2017-06-21T07:29:39.200Z,56.5
2017-06-21T07:30:19.689Z,56.99
2017-06-21T07:31:00.302Z,56.79
2017-06-21T07:31:40.824Z,56.4
2017-06-21T07:32:21.303Z,51.93
2017-06-21T07:33:01.830Z,50.76
2017-06-21T07:33:42.475Z,51.73
2017-06-21T07:34:23.069Z,53.2
2017-06-21T07:35:03.570Z,52.12
2017-06-21T07:35:44.133Z,48.99
2017-06-21T07:36:24.783Z,53.27
2017-06-21T07:37:05.199Z,51.22
2017-06-21T07:37:46.500Z,50.93
2017-06-21T07:38:26.968Z,54.15
2017-06-21T07:39:07.495Z,53.47
2017-06-21T07:39:48.046Z,50.63
2017-06-21T07:40:28.595Z,50.34
2017-06-21T07:41:09.082Z,54.22
2017-06-21T07:41:49.568Z,52
2017-06-21T07:42:30.077Z,53.44
2017-06-21T07:43:10.641Z,50.71
2017-06-21T07:43:51.139Z,51
2017-06-21T07:44:31.713Z,49.85
2017-06-21T07:45:12.195Z,49.36
2017-06-21T07:45:52.672Z,50.83
2017-06-21T07:46:33.238Z,49.07
2017-06-21T07:47:13.792Z,49.07
2017-06-21T07:47:54.314Z,47.89
2017-06-21T07:48:35.127Z,51.03
2017-06-21T07:49:15.528Z,52.29
2017-06-21T07:49:55.997Z,50.83
2017-06-21T07:50:36.526Z,51.98
2017-06-21T07:51:17.001Z,53.64
2017-06-21T07:51:57.553Z,52.47
2017-06-21T07:52:38.072Z,53.61
2017-06-21T07:53:18.627Z,54.88
2017-06-21T07:53:59.118Z,51.76
2017-06-21T07:54:39.667Z,50.78
2017-06-21T07:55:20.186Z,50.88
2017-06-21T07:56:00.694Z,51.63
2017-06-21T07:56:41.270Z,52.25
2017-06-21T07:57:21.775Z,50.68
2017-06-21T07:58:02.298Z,54.1
2017-06-21T07:58:42.763Z,55.3
2017-06-21T07:59:23.259Z,61.25
2017-06-21T08:00:03.743Z,63.87
2017-06-21T08:00:44.241Z,61.13
2017-06-21T08:01:24.776Z,62.7
2017-06-21T08:02:05.384Z,63.77
2017-06-21T08:02:46.090Z,63.87
2017-06-21T08:03:26.792Z,56.54
2017-06-21T08:04:07.613Z,57.32
2017-06-21T08:04:48.120Z,59.99
2017-06-21T08:05:28.703Z,56.27
2017-06-21T08:06:09.192Z,61.23
2017-06-21T08:06:49.847Z,56.35
2017-06-21T08:07:30.351Z,53.74
2017-06-21T08:08:10.813Z,57.25
2017-06-21T08:08:51.376Z,53.83
2017-06-21T08:09:31.826Z,55.3
2017-06-21T08:10:12.418Z,58.13
2017-06-21T08:10:52.911Z,57.74
2017-06-21T08:11:33.438Z,55.1
2017-06-21T08:12:13.961Z,58.72
2017-06-21T08:12:54.805Z,55.2
2017-06-21T08:13:35.379Z,59.96
2017-06-21T08:14:15.934Z,56.64
2017-06-21T08:14:57.850Z,56.67
2017-06-21T08:17:17.893Z,57.74
2017-06-21T08:17:58.899Z,53.93
2017-06-21T08:18:39.428Z,52.95
2017-06-21T08:19:20.048Z,57.15
2017-06-21T08:20:00.527Z,56.35
2017-06-21T08:20:41.062Z,52.76
2017-06-21T08:21:21.624Z,52.08
2017-06-21T08:22:02.158Z,50.98
2017-06-21T08:22:43.691Z,51.59
2017-06-21T08:23:24.279Z,51.98
2017-06-21T08:24:04.978Z,50.61
2017-06-21T08:24:45.469Z,57.35
2017-06-21T08:25:25.965Z,60.86
2017-06-21T08:26:06.655Z,62.01
2017-06-21T08:26:47.232Z,56.93
2017-06-21T08:27:27.732Z,54.27
2017-06-21T08:28:08.232Z,51.66
2017-06-21T08:28:48.734Z,54.1
2017-06-21T08:29:29.244Z,58.69
2017-06-21T08:30:09.827Z,61.1
2017-06-21T08:30:51.178Z,57.29
2017-06-21T08:31:31.710Z,55.15
2017-06-21T08:32:12.365Z,53.39
2017-06-21T08:32:52.859Z,51.76
2017-06-21T08:33:33.418Z,52.02
2017-06-21T08:34:14.058Z,56.25
2017-06-21T08:34:54.642Z,54.1
2017-06-21T08:35:35.090Z,54.1
2017-06-21T08:36:15.816Z,58.2
2017-06-21T08:36:56.288Z,57.23
2017-06-21T08:37:36.845Z,57.52
2017-06-21T08:38:17.367Z,59.86
2017-06-21T08:38:58.014Z,63.28
2017-06-21T08:39:38.665Z,65.33
2017-06-21T08:40:19.099Z,63.77
2017-06-21T08:40:59.753Z,56.71
2017-06-21T08:41:40.373Z,59.54
2017-06-21T08:42:21.090Z,56.41
2017-06-21T08:43:01.627Z,54.1
2017-06-21T08:43:42.101Z,58.79
2017-06-21T08:44:22.610Z,63.57
2017-06-21T08:45:03.810Z,62.79
2017-06-21T08:45:44.264Z,60.25
2017-06-21T08:46:24.772Z,57.32
2017-06-21T08:47:05.498Z,54.79
2017-06-21T08:47:46.024Z,55.27
2017-06-21T08:48:26.578Z,55.27
2017-06-21T08:49:07.100Z,57.64
2017-06-21T08:49:47.940Z,58.81
2017-06-21T08:50:28.440Z,61.65
2017-06-21T08:51:08.941Z,60.47
2017-06-21T08:51:49.826Z,59.79
2017-06-21T08:52:30.603Z,56.08
2017-06-21T08:53:11.381Z,53.83
2017-06-21T08:53:52.171Z,51.78
2017-06-21T08:54:32.736Z,51.88
2017-06-21T08:55:13.330Z,52.08
2017-06-21T08:55:53.853Z,57.15
2017-06-21T08:56:35.416Z,63.51
2017-06-21T08:57:17.077Z,57.23
2017-06-21T08:57:59.033Z,55.37
2017-06-21T08:58:40.430Z,56.57
2017-06-21T08:59:21.737Z,56.96
2017-06-21T09:00:02.311Z,58.23
2017-06-21T09:00:43.102Z,53.83
2017-06-21T09:01:23.713Z,55.59
2017-06-21T09:02:04.195Z,56.67
2017-06-21T09:02:45.649Z,59.04
2017-06-21T09:03:26.980Z,57.54
2017-06-21T09:04:07.891Z,58.91
2017-06-21T09:04:48.935Z,59.4
2017-06-21T09:05:29.448Z,56.96
2017-06-21T09:06:11.254Z,57.93
2017-06-21T09:06:52.483Z,57.35
2017-06-21T09:08:54.281Z,53.15
2017-06-21T09:09:42.856Z,58.13
2017-06-21T09:10:32.844Z,64.48
2017-06-21T09:11:23.553Z,62.3
2017-06-21T09:12:13.063Z,55.66
2017-06-21T09:13:00.326Z,52.95
2017-06-21T09:13:51.073Z,52.37
2017-06-21T09:14:42.476Z,57.32
2017-06-21T09:15:30.831Z,58.01
2017-06-21T09:16:22.858Z,53.61
2017-06-21T09:17:10.013Z,57.71
2017-06-21T09:18:01.020Z,53.91